createdAt,value
2022-11-07T00:00:07.933Z,100105.81
2022-11-07T00:02:34.420Z,100110.06
2022-11-07T00:05:01.782Z,100104.31
2022-11-07T00:07:28.152Z,100110.63
2022-11-07T00:09:54.525Z,100104.69
2022-11-07T00:12:20.911Z,100104.31
2022-11-07T00:14:47.284Z,100109.59
2022-11-07T00:17:13.725Z,100102.09
2022-11-07T00:19:40.111Z,100111.75
2022-11-07T00:22:06.532Z,100118.13
2022-11-07T00:24:32.908Z,100111.34
2022-11-07T00:26:59.569Z,100118.66
2022-11-07T00:29:26.040Z,100121.50
2022-11-07T00:31:52.416Z,100124.78
2022-11-07T00:34:18.775Z,100120.03
2022-11-07T00:36:45.195Z,100121.38
2022-11-07T00:39:12.097Z,100127.38
2022-11-07T00:41:38.457Z,100125.81
2022-11-07T00:44:04.934Z,100140.09
2022-11-07T00:46:31.551Z,100142.97
2022-11-07T00:48:57.967Z,100143.94
2022-11-07T00:51:26.635Z,100158.00
2022-11-07T00:53:53.503Z,100147.25
2022-11-07T00:56:24.232Z,100143.44
2022-11-07T00:58:58.122Z,100150.03
2022-11-07T01:01:27.277Z,100155.03
2022-11-07T01:04:12.244Z,100157.03
2022-11-07T01:06:39.820Z,100160.50
2022-11-07T01:09:11.488Z,100155.84
2022-11-07T01:11:39.139Z,100154.75
2022-11-07T01:14:06.389Z,100165.53
2022-11-07T01:16:35.276Z,100168.63
2022-11-07T01:19:03.178Z,100166.81
2022-11-07T01:21:29.633Z,100162.75
2022-11-07T01:23:55.986Z,100160.34
2022-11-07T01:26:22.440Z,100168.81
2022-11-07T01:28:48.831Z,100169.66
2022-11-07T01:31:17.079Z,100174.59
2022-11-07T01:33:44.123Z,100169.66
2022-11-07T01:36:13.713Z,100170.94
2022-11-07T01:38:42.533Z,100170.44
2022-11-07T01:41:25.286Z,100167.06
2022-11-07T01:44:06.864Z,100165.94
2022-11-07T01:46:38.059Z,100170.34
2022-11-07T01:49:22.595Z,100165.06
2022-11-07T01:51:51.654Z,100163.34
2022-11-07T01:54:21.266Z,100169.53
2022-11-07T01:56:48.359Z,100169.53
2022-11-07T01:59:17.503Z,100168.06
2022-11-07T02:01:44.094Z,100166.84
2022-11-07T02:04:11.744Z,100163.34
2022-11-07T02:06:51.570Z,100167.31
2022-11-07T02:09:17.958Z,100163.56
2022-11-07T02:11:44.417Z,100157.13
2022-11-07T02:14:17.473Z,100159.34
2022-11-07T02:16:43.874Z,100169.00
2022-11-07T02:19:21.543Z,100154.56
2022-11-07T02:21:54.251Z,100160.06
2022-11-07T02:24:30.000Z,100160.84
2022-11-07T02:26:57.153Z,100170.19
2022-11-07T02:29:24.376Z,100163.63
2022-11-07T02:32:01.376Z,100170.78
2022-11-07T02:34:27.741Z,100168.19
2022-11-07T02:36:54.162Z,100167.31
2022-11-07T02:39:20.778Z,100165.13
2022-11-07T02:41:47.848Z,100170.38
2022-11-07T02:44:14.403Z,100165.31
2022-11-07T02:46:40.808Z,100167.31
2022-11-07T02:49:07.215Z,100164.03
2022-11-07T02:51:33.613Z,100155.75
2022-11-07T02:53:59.979Z,100169.97
2022-11-07T02:56:26.339Z,100163.19
2022-11-07T02:58:52.820Z,100151.97
2022-11-07T03:01:19.628Z,100158.25
2022-11-07T03:03:47.884Z,100167.50
2022-11-07T03:06:19.802Z,100169.78
2022-11-07T03:08:46.481Z,100165.91
2022-11-07T03:11:13.189Z,100156.66
2022-11-07T03:13:39.997Z,100160.25
2022-11-07T03:16:09.968Z,100164.47
2022-11-07T03:18:36.570Z,100171.97
2022-11-07T03:21:03.904Z,100180.53
2022-11-07T03:23:30.630Z,100168.25
2022-11-07T03:25:57.070Z,100161.56
2022-11-07T03:28:24.657Z,100176.41
2022-11-07T03:30:51.362Z,100182.78
2022-11-07T03:33:18.005Z,100174.03
2022-11-07T03:35:44.681Z,100175.59
2022-11-07T03:38:11.233Z,100168.94
2022-11-07T03:40:37.676Z,100173.03
2022-11-07T03:43:04.091Z,100167.66
2022-11-07T03:45:30.462Z,100177.78
2022-11-07T03:47:56.814Z,100185.56
2022-11-07T03:50:23.205Z,100184.34
2022-11-07T03:52:49.642Z,100185.56
2022-11-07T03:55:17.965Z,100184.34
2022-11-07T03:57:44.823Z,100178.00
2022-11-07T04:00:11.972Z,100183.38
2022-11-07T04:02:38.501Z,100181.66
2022-11-07T04:05:05.478Z,100178.78
2022-11-07T04:07:31.934Z,100192.03
2022-11-07T04:09:58.362Z,100187.66
2022-11-07T04:12:43.275Z,100204.88
2022-11-07T04:15:29.052Z,100185.56
2022-11-07T04:17:55.417Z,100201.09
2022-11-07T04:20:21.912Z,100194.81
2022-11-07T04:22:48.279Z,100189.94
2022-11-07T04:25:14.723Z,100194.13
2022-11-07T04:27:44.049Z,100196.13
2022-11-07T04:30:19.689Z,100193.31
2022-11-07T04:32:54.553Z,100190.72
2022-11-07T04:35:22.589Z,100190.84
2022-11-07T04:37:49.158Z,100202.38
2022-11-07T04:40:16.441Z,100197.91
2022-11-07T04:42:43.780Z,100201.59
2022-11-07T04:45:10.978Z,100197.69
2022-11-07T04:47:40.364Z,100195.91
2022-11-07T04:50:09.672Z,100187.66
2022-11-07T04:52:36.267Z,100192.34
2022-11-07T04:55:02.691Z,100198.03
2022-11-07T04:57:29.168Z,100187.66
2022-11-07T04:59:55.566Z,100193.03
2022-11-07T05:02:25.377Z,100195.53
2022-11-07T05:04:52.318Z,100191.31
2022-11-07T05:07:19.896Z,100193.81
2022-11-07T05:09:46.280Z,100186.56
2022-11-07T05:12:12.630Z,100191.56
2022-11-07T05:14:39.002Z,100193.81
2022-11-07T05:17:05.378Z,100199.31
2022-11-07T05:19:31.803Z,100201.19
2022-11-07T05:22:16.801Z,100200.50
2022-11-07T05:24:43.203Z,100201.69
2022-11-07T05:27:20.009Z,100206.06
2022-11-07T05:29:46.731Z,100210.25
2022-11-07T05:32:13.908Z,100198.22
2022-11-07T05:34:40.730Z,100195.94
2022-11-07T05:37:08.790Z,100207.06
2022-11-07T05:39:35.616Z,100206.56
2022-11-07T05:42:02.466Z,100201.56
2022-11-07T05:44:29.448Z,100211.22
2022-11-07T05:46:56.470Z,100214.19
2022-11-07T05:49:24.191Z,100209.50
2022-11-07T05:51:50.597Z,100209.47
2022-11-07T05:54:16.930Z,100211.50
2022-11-07T05:56:46.177Z,100212.19
2022-11-07T05:59:13.681Z,100211.31
2022-11-07T06:01:40.150Z,100216.66
2022-11-07T06:04:07.595Z,100220.44
2022-11-07T06:06:34.202Z,100216.06
2022-11-07T06:09:00.617Z,100222.41
2022-11-07T06:11:27.008Z,100216.00
2022-11-07T06:13:53.946Z,100219.00
2022-11-07T06:16:20.293Z,100224.53
2022-11-07T06:18:46.680Z,100226.75
2022-11-07T06:21:13.885Z,100221.19
2022-11-07T06:23:40.271Z,100221.56
2022-11-07T06:26:06.610Z,100227.31
2022-11-07T06:28:32.963Z,100224.34
2022-11-07T06:31:00.268Z,100222.16
2022-11-07T06:33:26.662Z,100234.88
2022-11-07T06:35:53.102Z,100226.91
2022-11-07T06:38:19.548Z,100222.53
2022-11-07T06:40:45.955Z,100227.72
2022-11-07T06:43:19.811Z,100228.81
2022-11-07T06:45:47.207Z,100234.16
2022-11-07T06:48:13.605Z,100234.72
2022-11-07T06:50:40.030Z,100236.13
2022-11-07T06:53:09.025Z,100237.53
2022-11-07T06:55:36.197Z,100238.94
2022-11-07T06:58:03.419Z,100240.50
2022-11-07T07:00:31.016Z,100245.00
2022-11-07T07:02:59.058Z,100241.50
2022-11-07T07:05:25.926Z,100242.09
2022-11-07T07:07:53.990Z,100241.31
2022-11-07T07:10:20.352Z,100238.81
2022-11-07T07:12:46.847Z,100243.47
2022-11-07T07:15:13.179Z,100245.38
2022-11-07T07:17:39.563Z,100249.44
2022-11-07T07:20:06.804Z,100253.84
2022-11-07T07:22:33.136Z,100254.44
2022-11-07T07:24:59.481Z,100251.94
2022-11-07T07:27:25.844Z,100253.72
2022-11-07T07:29:53.371Z,100261.97
2022-11-07T07:32:20.706Z,100254.41
2022-11-07T07:34:47.119Z,100262.56
2022-11-07T07:37:13.442Z,100254.16
2022-11-07T07:39:39.820Z,100263.75
2022-11-07T07:42:06.189Z,100263.13
2022-11-07T07:44:32.525Z,100269.41
2022-11-07T07:46:58.863Z,100270.47
2022-11-07T07:49:25.205Z,100274.44
2022-11-07T07:51:51.695Z,100261.47
2022-11-07T07:54:18.038Z,100266.97
2022-11-07T07:56:44.377Z,100282.88
2022-11-07T07:59:10.728Z,100271.63
2022-11-07T08:01:37.227Z,100265.75
2022-11-07T08:04:03.725Z,100269.38
2022-11-07T08:06:30.517Z,100269.59
2022-11-07T08:08:56.862Z,100275.41
2022-11-07T08:11:23.285Z,100278.78
2022-11-07T08:13:49.619Z,100280.06
2022-11-07T08:16:15.984Z,100277.94
2022-11-07T08:18:42.426Z,100277.75
2022-11-07T08:21:09.014Z,100278.34
2022-11-07T08:23:35.708Z,100281.91
2022-11-07T08:26:04.205Z,100295.19
2022-11-07T08:28:32.988Z,100284.25
2022-11-07T08:31:11.811Z,100295.75
2022-11-07T08:33:38.699Z,100300.56
2022-11-07T08:36:06.153Z,100297.97
2022-11-07T08:38:34.016Z,100292.34
2022-11-07T08:41:00.673Z,100290.81
2022-11-07T08:43:27.433Z,100297.81
2022-11-07T08:45:54.514Z,100303.28
2022-11-07T08:48:21.332Z,100293.78
2022-11-07T08:50:54.367Z,100294.94
2022-11-07T08:53:21.649Z,100295.66
2022-11-07T08:55:48.178Z,100299.44
2022-11-07T08:58:15.071Z,100293.34
2022-11-07T09:00:41.631Z,100296.84
2022-11-07T09:03:38.728Z,100288.97
2022-11-07T09:05:56.603Z,100295.81
2022-11-07T09:08:23.008Z,100294.84
2022-11-07T09:10:49.482Z,100292.72
2022-11-07T09:13:16.082Z,100296.56
2022-11-07T09:15:47.728Z,100297.53
2022-11-07T09:18:15.864Z,100295.94
2022-11-07T09:20:42.320Z,100300.75
2022-11-07T09:23:09.127Z,100312.50
2022-11-07T09:25:35.507Z,100305.78
2022-11-07T09:28:03.191Z,100306.22
2022-11-07T09:30:29.574Z,100311.41
2022-11-07T09:32:56.631Z,100319.56
2022-11-07T09:35:22.999Z,100314.44
2022-11-07T09:37:50.586Z,100315.25
2022-11-07T09:40:19.850Z,100327.91
2022-11-07T09:43:19.022Z,100332.31
2022-11-07T09:45:55.056Z,100335.22
2022-11-07T09:48:23.790Z,100328.75
2022-11-07T09:50:50.826Z,100344.09
2022-11-07T09:53:38.083Z,100353.31
2022-11-07T09:56:05.331Z,100354.41
2022-11-07T09:58:37.143Z,100358.44
2022-11-07T10:01:06.531Z,100351.69
2022-11-07T10:03:37.641Z,100352.53
2022-11-07T10:06:27.281Z,100350.34
2022-11-07T10:09:16.276Z,100355.00
2022-11-07T10:12:04.531Z,100356.16
2022-11-07T10:14:52.325Z,100346.03
2022-11-07T10:17:36.190Z,100356.22
2022-11-07T10:20:32.346Z,100356.59
2022-11-07T10:23:24.850Z,100354.72
2022-11-07T10:26:12.849Z,100350.38
2022-11-07T10:28:48.135Z,100357.66
2022-11-07T10:31:15.537Z,100366.28
2022-11-07T10:33:48.205Z,100363.06
2022-11-07T10:36:21.802Z,100365.13
2022-11-07T10:38:48.191Z,100379.78
2022-11-07T10:41:16.406Z,100382.63
2022-11-07T10:43:44.794Z,100387.44
2022-11-07T10:46:24.455Z,100395.38
2022-11-07T10:48:58.733Z,100391.34
2022-11-07T10:51:36.298Z,100400.56
2022-11-07T10:54:02.723Z,100409.66
2022-11-07T10:56:29.105Z,100409.97
2022-11-07T10:58:55.757Z,100408.69
2022-11-07T11:01:26.302Z,100410.81
2022-11-07T11:03:53.257Z,100418.63
2022-11-07T11:06:23.339Z,100412.16
2022-11-07T11:08:51.690Z,100412.16
2022-11-07T11:11:21.034Z,100419.31
2022-11-07T11:13:48.318Z,100410.00
2022-11-07T11:16:29.866Z,100397.69
2022-11-07T11:18:58.075Z,100403.50
2022-11-07T11:21:25.030Z,100395.31
2022-11-07T11:23:52.177Z,100398.09
2022-11-07T11:26:32.011Z,100387.63
2022-11-07T11:29:02.009Z,100395.94
2022-11-07T11:31:32.435Z,100386.22
2022-11-07T11:34:05.773Z,100386.88
2022-11-07T11:36:36.776Z,100377.59
2022-11-07T11:39:05.826Z,100382.94
2022-11-07T11:41:39.478Z,100385.81
2022-11-07T11:44:21.126Z,100381.81
2022-11-07T11:47:17.916Z,100375.63
2022-11-07T11:49:49.313Z,100377.97
2022-11-07T11:52:17.941Z,100368.13
2022-11-07T11:54:45.275Z,100370.81
2022-11-07T11:57:16.616Z,100359.63
2022-11-07T12:00:04.345Z,100361.03
2022-11-07T12:02:45.916Z,100365.00
2022-11-07T12:05:40.402Z,100368.38
2022-11-07T12:08:36.874Z,100379.22
2022-11-07T12:11:27.822Z,100373.09
2022-11-07T12:14:25.092Z,100379.56
2022-11-07T12:16:57.334Z,100374.19
2022-11-07T12:19:26.589Z,100368.81
2022-11-07T12:22:30.672Z,100363.63
2022-11-07T12:25:26.280Z,100375.47
2022-11-07T12:27:52.548Z,100375.63
2022-11-07T12:30:22.060Z,100370.94
2022-11-07T12:32:57.229Z,100358.03
2022-11-07T12:35:39.112Z,100367.50
2022-11-07T12:38:14.442Z,100360.59
2022-11-07T12:40:47.472Z,100361.81
2022-11-07T12:43:29.324Z,100372.50
2022-11-07T12:46:20.726Z,100351.91
2022-11-07T12:49:21.271Z,100352.97
2022-11-07T12:52:01.821Z,100348.03
2022-11-07T12:55:00.603Z,100352.25
2022-11-07T12:57:30.597Z,100353.53
2022-11-07T13:00:05.136Z,100350.63
2022-11-07T13:03:04.473Z,100358.41
2022-11-07T13:05:52.674Z,100350.91
2022-11-07T13:09:05.126Z,100361.63
2022-11-07T13:11:44.697Z,100353.25
2022-11-07T13:14:24.448Z,100358.09
2022-11-07T13:17:03.316Z,100356.13
2022-11-07T13:19:42.712Z,100362.41
2022-11-07T13:22:24.757Z,100356.31
2022-11-07T13:24:52.679Z,100358.69
2022-11-07T13:27:24.330Z,100359.56
2022-11-07T13:29:50.775Z,100351.59
2022-11-07T13:32:17.699Z,100362.59
2022-11-07T13:35:00.364Z,100355.56
2022-11-07T13:37:32.384Z,100354.47
2022-11-07T13:40:28.359Z,100365.09
2022-11-07T13:43:00.272Z,100346.00
2022-11-07T13:45:29.744Z,100354.63
2022-11-07T13:47:59.678Z,100351.84
2022-11-07T13:50:39.054Z,100355.66
2022-11-07T13:53:10.063Z,100356.41
2022-11-07T13:55:50.289Z,100351.69
2022-11-07T13:58:17.615Z,100352.66
2022-11-07T14:00:44.029Z,100357.31
2022-11-07T14:03:42.967Z,100352.41
2022-11-07T14:06:13.238Z,100362.66
2022-11-07T14:08:41.140Z,100357.31
2022-11-07T14:11:19.140Z,100357.16
2022-11-07T14:13:50.432Z,100356.66
2022-11-07T14:16:20.600Z,100351.75
2022-11-07T14:18:56.135Z,100352.50
2022-11-07T14:21:26.898Z,100355.13
2022-11-07T14:23:53.453Z,100355.59
2022-11-07T14:26:23.434Z,100354.34
2022-11-07T14:28:50.268Z,100350.28
2022-11-07T14:31:25.567Z,100347.03
2022-11-07T14:33:54.710Z,100352.25
2022-11-07T14:36:22.247Z,100349.81
2022-11-07T14:38:54.361Z,100350.88
2022-11-07T14:41:22.123Z,100349.16
2022-11-07T14:43:49.559Z,100352.97
2022-11-07T14:46:19.961Z,100352.75
2022-11-07T14:48:49.266Z,100356.34
2022-11-07T14:51:19.078Z,100362.75
2022-11-07T14:53:50.870Z,100356.06
2022-11-07T14:56:20.276Z,100362.28
2022-11-07T14:58:47.226Z,100360.72
2022-11-07T15:01:20.643Z,100366.63
2022-11-07T15:03:57.765Z,100357.31
2022-11-07T15:06:40.535Z,100363.00
2022-11-07T15:09:08.095Z,100354.63
2022-11-07T15:11:37.122Z,100355.34
2022-11-07T15:14:06.497Z,100346.88
2022-11-07T15:16:37.910Z,100354.06
2022-11-07T15:19:07.200Z,100350.56
2022-11-07T15:21:36.474Z,100362.16
2022-11-07T15:24:35.971Z,100354.03
2022-11-07T15:27:06.098Z,100350.28
2022-11-07T15:29:35.142Z,100352.09
2022-11-07T15:32:16.779Z,100357.53
2022-11-07T15:35:03.883Z,100359.66
2022-11-07T15:37:29.942Z,100358.25
2022-11-07T15:39:56.404Z,100363.44
2022-11-07T15:42:22.824Z,100364.59
2022-11-07T15:44:49.225Z,100362.91
2022-11-07T15:47:19.967Z,100359.09
2022-11-07T15:49:47.316Z,100356.22
2022-11-07T15:52:14.215Z,100367.38
2022-11-07T15:54:40.625Z,100366.63
2022-11-07T15:57:07.945Z,100369.00
2022-11-07T15:59:35.959Z,100369.16
2022-11-07T16:02:02.829Z,100361.69
2022-11-07T16:04:29.488Z,100373.84
2022-11-07T16:06:55.902Z,100364.44
2022-11-07T16:09:22.504Z,100358.59
2022-11-07T16:11:48.991Z,100377.63
2022-11-07T16:14:42.895Z,100370.28
2022-11-07T16:17:06.394Z,100370.38
2022-11-07T16:19:32.822Z,100373.63
2022-11-07T16:21:59.176Z,100382.66
2022-11-07T16:24:25.577Z,100382.81
2022-11-07T16:26:52.253Z,100384.28
2022-11-07T16:29:18.622Z,100383.47
2022-11-07T16:31:45.009Z,100390.53
2022-11-07T16:34:11.880Z,100392.00
2022-11-07T16:36:39.391Z,100397.75
2022-11-07T16:39:10.138Z,100394.44
2022-11-07T16:41:36.506Z,100389.66
2022-11-07T16:44:02.965Z,100395.19
2022-11-07T16:46:35.413Z,100388.53
2022-11-07T16:49:26.297Z,100393.00
2022-11-07T16:51:52.680Z,100385.59
2022-11-07T16:54:19.061Z,100392.09
2022-11-07T16:56:47.194Z,100389.50
2022-11-07T16:59:18.515Z,100392.28
2022-11-07T17:01:45.092Z,100393.50
2022-11-07T17:04:11.655Z,100391.44
2022-11-07T17:06:43.262Z,100396.25
2022-11-07T17:09:13.531Z,100393.38
2022-11-07T17:11:40.167Z,100391.63
2022-11-07T17:14:06.532Z,100396.63
2022-11-07T17:16:36.453Z,100399.34
2022-11-07T17:19:04.833Z,100396.56
2022-11-07T17:21:46.202Z,100397.31
2022-11-07T17:24:12.692Z,100400.16
2022-11-07T17:26:39.038Z,100386.22
2022-11-07T17:29:07.745Z,100389.97
2022-11-07T17:31:34.432Z,100397.22
2022-11-07T17:34:00.909Z,100397.88
2022-11-07T17:36:36.635Z,100395.91
2022-11-07T17:39:08.056Z,100392.66
2022-11-07T17:41:34.445Z,100402.75
2022-11-07T17:44:00.906Z,100400.22
2022-11-07T17:46:30.021Z,100404.13
2022-11-07T17:48:58.720Z,100402.41
2022-11-07T17:51:27.953Z,100405.28
2022-11-07T17:53:55.672Z,100409.50
2022-11-07T17:56:27.524Z,100411.53
2022-11-07T17:58:57.079Z,100413.25
2022-11-07T18:01:25.551Z,100415.84
2022-11-07T18:03:53.377Z,100411.44
2022-11-07T18:06:23.264Z,100412.56
2022-11-07T18:08:55.352Z,100411.84
2022-11-07T18:11:24.698Z,100405.56
2022-11-07T18:13:52.843Z,100407.25
2022-11-07T18:16:22.435Z,100414.03
2022-11-07T18:18:49.169Z,100404.72
2022-11-07T18:21:15.519Z,100413.16
2022-11-07T18:23:41.970Z,100407.63
2022-11-07T18:26:13.588Z,100404.94
2022-11-07T18:28:40.452Z,100411.16
2022-11-07T18:31:09.826Z,100411.31
2022-11-07T18:33:36.382Z,100405.75
2022-11-07T18:36:05.849Z,100414.63
2022-11-07T18:38:32.361Z,100412.91
2022-11-07T18:41:03.595Z,100410.81
2022-11-07T18:43:30.057Z,100410.81
2022-11-07T18:45:56.862Z,100409.00
2022-11-07T18:48:24.371Z,100408.47
2022-11-07T18:50:51.025Z,100418.47
2022-11-07T18:53:17.805Z,100416.16
2022-11-07T18:55:44.223Z,100416.66
2022-11-07T18:58:11.396Z,100405.31
2022-11-07T19:00:37.927Z,100406.91
2022-11-07T19:03:04.419Z,100407.56
2022-11-07T19:05:30.793Z,100410.44
2022-11-07T19:07:57.209Z,100411.88
2022-11-07T19:10:23.588Z,100410.44
2022-11-07T19:12:49.989Z,100411.16
2022-11-07T19:15:16.413Z,100404.31
2022-11-07T19:17:42.796Z,100408.13
2022-11-07T19:20:09.823Z,100411.72
2022-11-07T19:22:36.231Z,100405.91
2022-11-07T19:25:02.616Z,100405.28
2022-11-07T19:27:29.626Z,100404.28
2022-11-07T19:29:56.343Z,100399.56
2022-11-07T19:32:22.761Z,100404.13
2022-11-07T19:34:49.137Z,100400.53
2022-11-07T19:37:15.502Z,100398.50
2022-11-07T19:39:41.870Z,100404.16
2022-11-07T19:42:08.235Z,100399.59
2022-11-07T19:44:36.220Z,100400.78
2022-11-07T19:47:02.575Z,100402.69
2022-11-07T19:49:29.144Z,100406.88
2022-11-07T19:51:56.003Z,100402.31
2022-11-07T19:54:22.464Z,100401.25
2022-11-07T19:56:51.973Z,100398.13
2022-11-07T19:59:22.669Z,100405.09
2022-11-07T20:02:10.470Z,100403.25
2022-11-07T20:04:36.523Z,100399.00
2022-11-07T20:07:02.900Z,100406.56
2022-11-07T20:09:29.293Z,100405.59
2022-11-07T20:11:55.661Z,100402.75
2022-11-07T20:14:22.157Z,100412.09
2022-11-07T20:16:48.566Z,100400.97
2022-11-07T20:19:14.926Z,100411.13
2022-11-07T20:21:41.396Z,100404.84
2022-11-07T20:24:10.906Z,100406.88
2022-11-07T20:26:40.651Z,100399.72
2022-11-07T20:29:08.862Z,100410.69
2022-11-07T20:31:39.924Z,100406.28
2022-11-07T20:34:07.746Z,100413.88
2022-11-07T20:36:34.641Z,100416.81
2022-11-07T20:39:01.811Z,100423.66
2022-11-07T20:41:28.662Z,100409.56
2022-11-07T20:44:03.773Z,100415.13
2022-11-07T20:46:31.529Z,100423.31
2022-11-07T20:48:59.309Z,100426.56
2022-11-07T20:51:25.853Z,100424.81
2022-11-07T20:53:52.687Z,100422.13
2022-11-07T20:56:19.830Z,100425.91
2022-11-07T20:58:46.563Z,100415.59
2022-11-07T21:01:19.292Z,100420.63
2022-11-07T21:03:46.029Z,100415.91
2022-11-07T21:06:12.914Z,100420.94
2022-11-07T21:08:41.052Z,100424.09
2022-11-07T21:11:07.458Z,100421.81
2022-11-07T21:13:34.427Z,100427.66
2022-11-07T21:16:01.412Z,100428.47
2022-11-07T21:18:27.877Z,100425.78
2022-11-07T21:20:54.315Z,100436.25
2022-11-07T21:23:20.795Z,100433.75
2022-11-07T21:25:48.332Z,100424.59
2022-11-07T21:28:17.264Z,100436.91
2022-11-07T21:30:45.233Z,100430.66
2022-11-07T21:33:12.298Z,100428.13
2022-11-07T21:35:42.343Z,100428.06
2022-11-07T21:38:08.732Z,100428.25
2022-11-07T21:40:36.138Z,100426.44
2022-11-07T21:43:02.499Z,100429.41
2022-11-07T21:45:28.862Z,100433.38
2022-11-07T21:47:55.214Z,100432.28
2022-11-07T21:50:43.726Z,100436.22
2022-11-07T21:53:08.170Z,100423.66
2022-11-07T21:55:35.153Z,100426.00
2022-11-07T21:58:01.529Z,100430.38
2022-11-07T22:00:31.753Z,100432.63
2022-11-07T22:03:02.068Z,100433.19
2022-11-07T22:05:28.443Z,100437.84
2022-11-07T22:07:54.813Z,100437.47
2022-11-07T22:10:21.188Z,100438.47
2022-11-07T22:12:47.608Z,100428.31
2022-11-07T22:15:14.013Z,100433.72
2022-11-07T22:17:40.380Z,100430.91
2022-11-07T22:20:07.262Z,100421.78
2022-11-07T22:22:34.411Z,100424.91
2022-11-07T22:25:00.783Z,100417.03
2022-11-07T22:27:27.159Z,100409.34
2022-11-07T22:29:53.582Z,100413.19
2022-11-07T22:32:19.926Z,100410.41
2022-11-07T22:34:46.305Z,100405.69
2022-11-07T22:37:12.699Z,100412.72
2022-11-07T22:39:39.175Z,100415.22
2022-11-07T22:42:05.735Z,100402.31
2022-11-07T22:44:32.097Z,100404.66
2022-11-07T22:46:58.475Z,100406.16
2022-11-07T22:49:24.847Z,100409.16
2022-11-07T22:51:51.281Z,100402.78
2022-11-07T22:54:17.658Z,100405.75
2022-11-07T22:56:44.020Z,100397.13
2022-11-07T22:59:11.221Z,100395.16
2022-11-07T23:01:40.072Z,100393.31
2022-11-07T23:04:07.462Z,100393.38
2022-11-07T23:06:34.315Z,100389.63
2022-11-07T23:09:00.976Z,100385.13
2022-11-07T23:11:48.866Z,100387.25
2022-11-07T23:14:20.617Z,100387.72
2022-11-07T23:16:49.804Z,100390.47
2022-11-07T23:19:17.923Z,100390.06
2022-11-07T23:21:44.647Z,100387.47
2022-11-07T23:24:11.521Z,100387.63
2022-11-07T23:26:38.317Z,100391.91
2022-11-07T23:29:10.870Z,100386.09
2022-11-07T23:31:39.099Z,100386.47
2022-11-07T23:34:05.477Z,100379.75
2022-11-07T23:36:31.840Z,100378.09
2022-11-07T23:39:04.597Z,100373.75
2022-11-07T23:41:30.957Z,100378.09
2022-11-07T23:43:57.395Z,100374.72
2022-11-07T23:46:42.256Z,100373.31
2022-11-07T23:49:27.722Z,100378.09
2022-11-07T23:51:54.287Z,100380.34
2022-11-07T23:54:39.106Z,100372.38
2022-11-07T23:57:05.486Z,100374.63
2022-11-07T23:59:50.275Z,100372.56
